createdAt,value
2023-02-08T00:00:01.923Z,1.78
2023-02-08T00:02:28.335Z,1.80
2023-02-08T00:04:54.750Z,1.79
2023-02-08T00:07:21.156Z,1.78
2023-02-08T00:09:47.522Z,1.77
2023-02-08T00:12:13.944Z,1.75
2023-02-08T00:14:40.476Z,1.72
2023-02-08T00:17:07.093Z,1.72
2023-02-08T00:19:33.570Z,1.73
2023-02-08T00:21:59.951Z,1.77
2023-02-08T00:24:26.343Z,1.77
2023-02-08T00:26:53.985Z,1.79
2023-02-08T00:29:20.573Z,1.79
2023-02-08T00:31:47.040Z,1.81
2023-02-08T00:34:13.552Z,1.82
2023-02-08T00:36:40.065Z,1.82
2023-02-08T00:39:08.119Z,1.82
2023-02-08T00:41:34.539Z,1.81
2023-02-08T00:44:01.007Z,1.78
2023-02-08T00:46:28.565Z,1.79
2023-02-08T00:48:54.968Z,1.79
2023-02-08T00:51:21.389Z,1.79
2023-02-08T00:53:49.530Z,1.78
2023-02-08T00:56:16.109Z,1.77
2023-02-08T00:58:43.656Z,1.78
2023-02-08T01:01:11.190Z,1.78
2023-02-08T01:03:40.083Z,1.77
2023-02-08T01:06:08.922Z,1.75
2023-02-08T01:08:35.690Z,1.71
2023-02-08T01:11:11.604Z,1.70
2023-02-08T01:13:38.657Z,1.68
2023-02-08T01:16:13.546Z,1.67
2023-02-08T01:18:41.510Z,1.67
2023-02-08T01:21:13.845Z,1.66
2023-02-08T01:23:41.121Z,1.65
2023-02-08T01:26:08.864Z,1.62
2023-02-08T01:28:36.186Z,1.58
2023-02-08T01:31:14.179Z,1.55
2023-02-08T01:33:41.371Z,1.51
2023-02-08T01:36:09.125Z,1.47
2023-02-08T01:38:36.404Z,1.46
2023-02-08T01:41:04.015Z,1.46
2023-02-08T01:43:55.206Z,1.45
2023-02-08T01:46:21.884Z,1.42
2023-02-08T01:48:48.877Z,1.41
2023-02-08T01:51:21.241Z,1.41
2023-02-08T01:53:52.942Z,1.41
2023-02-08T01:56:33.129Z,1.40
2023-02-08T01:59:03.031Z,1.40
2023-02-08T02:01:31.297Z,1.37
2023-02-08T02:04:02.968Z,1.32
2023-02-08T02:06:34.989Z,1.26
2023-02-08T02:09:19.553Z,1.26
2023-02-08T02:11:45.955Z,1.23
2023-02-08T02:14:13.603Z,1.21
2023-02-08T02:16:40.041Z,1.21
2023-02-08T02:19:19.157Z,1.19
2023-02-08T02:21:45.526Z,1.18
2023-02-08T02:24:39.024Z,1.19
2023-02-08T02:27:26.231Z,1.17
2023-02-08T02:30:21.568Z,1.14
2023-02-08T02:33:24.107Z,1.12
2023-02-08T02:36:18.979Z,1.09
2023-02-08T02:38:56.171Z,1.06
2023-02-08T02:42:12.701Z,1.08
2023-02-08T02:45:05.498Z,1.08
2023-02-08T02:47:41.781Z,1.08
2023-02-08T02:50:25.055Z,1.07
2023-02-08T02:53:00.285Z,1.08
2023-02-08T02:55:30.897Z,1.10
2023-02-08T02:58:00.360Z,1.12
2023-02-08T03:00:30.905Z,1.12
2023-02-08T03:02:58.640Z,1.09
2023-02-08T03:05:27.850Z,1.08
2023-02-08T03:08:12.751Z,1.07
2023-02-08T03:11:00.222Z,1.06
2023-02-08T03:13:55.823Z,1.08
2023-02-08T03:16:31.590Z,1.08
2023-02-08T03:19:31.102Z,1.06
2023-02-08T03:22:03.183Z,1.03
2023-02-08T03:24:54.354Z,1.00
2023-02-08T03:27:40.320Z,0.96
2023-02-08T03:30:17.231Z,0.95
2023-02-08T03:33:09.107Z,0.95
2023-02-08T03:36:09.370Z,0.95
2023-02-08T03:38:39.842Z,0.93
2023-02-08T03:41:10.284Z,0.94
2023-02-08T03:43:52.267Z,0.90
2023-02-08T03:46:25.304Z,0.87
2023-02-08T03:48:56.957Z,0.84
2023-02-08T03:51:26.055Z,0.85
2023-02-08T03:53:54.869Z,0.83
2023-02-08T03:56:31.878Z,0.85
2023-02-08T03:59:03.432Z,0.83
2023-02-08T04:01:36.716Z,0.83
2023-02-08T04:04:03.574Z,0.80
2023-02-08T04:06:30.144Z,0.81
2023-02-08T04:08:56.604Z,0.82
2023-02-08T04:11:23.363Z,0.83
2023-02-08T04:13:49.772Z,0.86
2023-02-08T04:16:16.212Z,0.85
2023-02-08T04:18:42.957Z,0.83
2023-02-08T04:21:09.372Z,0.82
2023-02-08T04:23:35.817Z,0.81
2023-02-08T04:26:02.209Z,0.79
2023-02-08T04:28:28.650Z,0.76
2023-02-08T04:30:57.140Z,0.73
2023-02-08T04:33:23.589Z,0.70
2023-02-08T04:35:49.967Z,0.71
2023-02-08T04:38:16.488Z,0.70
2023-02-08T04:40:43.094Z,0.69
2023-02-08T04:43:09.680Z,0.69
2023-02-08T04:45:36.406Z,0.67
2023-02-08T04:48:03.800Z,0.66
2023-02-08T04:50:30.288Z,0.64
2023-02-08T04:52:56.709Z,0.66
2023-02-08T04:55:23.074Z,0.67
2023-02-08T04:57:49.703Z,0.66
2023-02-08T05:00:16.488Z,0.68
2023-02-08T05:02:42.962Z,0.68
2023-02-08T05:05:09.390Z,0.70
2023-02-08T05:07:35.780Z,0.70
2023-02-08T05:10:03.015Z,0.69
2023-02-08T05:12:29.529Z,0.71
2023-02-08T05:14:55.960Z,0.73
2023-02-08T05:17:22.567Z,0.70
2023-02-08T05:19:49.031Z,0.71
2023-02-08T05:22:15.493Z,0.72
2023-02-08T05:24:41.887Z,0.72
2023-02-08T05:27:08.288Z,0.71
2023-02-08T05:29:34.677Z,0.73
2023-02-08T05:32:01.149Z,0.75
2023-02-08T05:34:27.595Z,0.74
2023-02-08T05:36:54.022Z,0.73
2023-02-08T05:39:20.520Z,0.74
2023-02-08T05:41:46.914Z,0.70
2023-02-08T05:44:13.371Z,0.67
2023-02-08T05:46:39.890Z,0.69
2023-02-08T05:49:06.394Z,0.69
2023-02-08T05:51:32.819Z,0.71
2023-02-08T05:53:59.237Z,0.65
2023-02-08T05:56:25.775Z,0.66
2023-02-08T05:58:52.159Z,0.69
2023-02-08T06:01:18.556Z,0.70
2023-02-08T06:03:44.992Z,0.70
2023-02-08T06:06:11.845Z,0.69
2023-02-08T06:08:39.784Z,0.71
2023-02-08T06:11:06.576Z,0.71
2023-02-08T06:13:33.005Z,0.73
2023-02-08T06:15:59.404Z,0.73
2023-02-08T06:18:25.886Z,0.72
2023-02-08T06:20:54.333Z,0.73
2023-02-08T06:23:22.051Z,0.70
2023-02-08T06:25:48.468Z,0.64
2023-02-08T06:28:15.014Z,0.61
2023-02-08T06:30:41.857Z,0.61
2023-02-08T06:33:08.400Z,0.62
2023-02-08T06:35:34.829Z,0.63
2023-02-08T06:38:01.327Z,0.63
2023-02-08T06:40:27.747Z,0.64
2023-02-08T06:42:54.150Z,0.62
2023-02-08T06:45:20.568Z,0.59
2023-02-08T06:47:46.932Z,0.62
2023-02-08T06:50:15.113Z,0.60
2023-02-08T06:52:41.632Z,0.59
2023-02-08T06:55:08.200Z,0.59
2023-02-08T06:57:34.638Z,0.57
2023-02-08T07:00:00.976Z,0.55
2023-02-08T07:02:27.753Z,0.54
2023-02-08T07:04:54.312Z,0.51
2023-02-08T07:07:20.754Z,0.53
2023-02-08T07:09:47.352Z,0.53
2023-02-08T07:12:13.917Z,0.49
2023-02-08T07:14:42.506Z,0.48
2023-02-08T07:17:10.138Z,0.49
2023-02-08T07:19:36.533Z,0.46
2023-02-08T07:22:08.342Z,0.45
2023-02-08T07:24:36.879Z,0.44
2023-02-08T07:27:04.743Z,0.43
2023-02-08T07:29:32.616Z,0.38
2023-02-08T07:32:01.140Z,0.35
2023-02-08T07:34:32.513Z,0.36
2023-02-08T07:36:58.951Z,0.32
2023-02-08T07:39:25.585Z,0.33
2023-02-08T07:41:52.000Z,0.34
2023-02-08T07:44:18.512Z,0.32
2023-02-08T07:46:44.962Z,0.34
2023-02-08T07:49:11.386Z,0.35
2023-02-08T07:51:37.822Z,0.38
2023-02-08T07:54:04.376Z,0.38
2023-02-08T07:56:31.078Z,0.32
2023-02-08T07:58:57.543Z,0.30
2023-02-08T08:01:24.174Z,0.31
2023-02-08T08:03:51.736Z,0.35
2023-02-08T08:06:20.055Z,0.44
2023-02-08T08:08:47.549Z,0.63
2023-02-08T08:11:15.418Z,0.81
2023-02-08T08:13:41.962Z,0.98
2023-02-08T08:16:08.810Z,1.20
2023-02-08T08:18:35.970Z,1.42
2023-02-08T08:21:03.183Z,1.64
2023-02-08T08:23:29.732Z,1.86
2023-02-08T08:25:56.165Z,1.93
2023-02-08T08:28:23.419Z,1.94
2023-02-08T08:30:50.080Z,2.03
2023-02-08T08:33:16.702Z,2.09
2023-02-08T08:35:44.272Z,2.14
2023-02-08T08:38:10.658Z,2.08
2023-02-08T08:40:37.025Z,2.18
2023-02-08T08:43:03.396Z,2.24
2023-02-08T08:45:29.905Z,2.27
2023-02-08T08:47:56.384Z,2.33
2023-02-08T08:50:22.871Z,2.38
2023-02-08T08:52:49.388Z,2.44
2023-02-08T08:55:15.855Z,2.51
2023-02-08T08:57:42.257Z,2.57
2023-02-08T09:00:09.452Z,2.65
2023-02-08T09:02:35.929Z,2.70
2023-02-08T09:05:04.178Z,2.69
2023-02-08T09:07:30.683Z,2.69
2023-02-08T09:09:57.121Z,2.71
2023-02-08T09:12:23.562Z,2.74
2023-02-08T09:14:50.072Z,2.65
2023-02-08T09:17:16.461Z,2.76
2023-02-08T09:19:42.823Z,2.90
2023-02-08T09:22:09.246Z,2.98
2023-02-08T09:24:35.678Z,3.07
2023-02-08T09:27:02.224Z,3.19
2023-02-08T09:29:30.050Z,3.32
2023-02-08T09:31:56.816Z,3.39
2023-02-08T09:34:23.404Z,3.40
2023-02-08T09:36:49.836Z,3.45
2023-02-08T09:39:19.307Z,3.53
2023-02-08T09:42:13.804Z,3.59
2023-02-08T09:44:58.927Z,3.65
2023-02-08T09:47:44.072Z,3.57
2023-02-08T09:50:19.463Z,3.63
2023-02-08T09:53:02.456Z,3.69
2023-02-08T09:55:37.333Z,3.71
2023-02-08T09:58:16.584Z,3.67
2023-02-08T10:00:46.853Z,3.72
2023-02-08T10:03:27.150Z,3.77
2023-02-08T10:05:53.960Z,3.83
2023-02-08T10:08:20.662Z,3.84
2023-02-08T10:10:58.539Z,3.80
2023-02-08T10:13:49.464Z,3.79
2023-02-08T10:16:34.161Z,3.74
2023-02-08T10:19:11.808Z,3.76
2023-02-08T10:21:58.965Z,3.81
2023-02-08T10:24:41.014Z,3.82
2023-02-08T10:27:30.160Z,3.84
2023-02-08T10:30:11.926Z,3.82
2023-02-08T10:32:56.728Z,3.84
2023-02-08T10:35:43.298Z,3.90
2023-02-08T10:38:45.497Z,3.88
2023-02-08T10:41:24.533Z,3.94
2023-02-08T10:44:03.500Z,4.13
2023-02-08T10:46:53.332Z,4.01
2023-02-08T10:49:42.719Z,4.02
2023-02-08T10:52:12.007Z,4.08
2023-02-08T10:54:39.447Z,4.10
2023-02-08T10:57:15.117Z,4.07
2023-02-08T11:00:04.303Z,4.10
2023-02-08T11:02:40.251Z,4.16
2023-02-08T11:05:37.038Z,4.18
2023-02-08T11:08:23.881Z,4.23
2023-02-08T11:11:03.569Z,4.20
2023-02-08T11:13:39.771Z,4.15
2023-02-08T11:16:12.475Z,4.14
2023-02-08T11:18:52.875Z,4.15
2023-02-08T11:21:36.989Z,4.20
2023-02-08T11:24:29.368Z,4.26
2023-02-08T11:26:59.772Z,4.30
2023-02-08T11:29:30.906Z,4.36
2023-02-08T11:32:19.868Z,4.34
2023-02-08T11:34:46.909Z,4.24
2023-02-08T11:37:30.507Z,4.33
2023-02-08T11:40:02.094Z,4.44
2023-02-08T11:42:35.461Z,4.46
2023-02-08T11:45:12.111Z,4.57
2023-02-08T11:47:38.511Z,4.60
2023-02-08T11:50:08.173Z,4.62
2023-02-08T11:52:39.142Z,4.66
2023-02-08T11:55:35.161Z,4.53
2023-02-08T11:58:24.318Z,4.51
2023-02-08T12:01:16.836Z,4.63
2023-02-08T12:03:44.767Z,4.81
2023-02-08T12:06:47.962Z,4.93
2023-02-08T12:09:33.894Z,5.07
2023-02-08T12:12:27.470Z,5.11
2023-02-08T12:15:26.370Z,5.13
2023-02-08T12:18:10.000Z,5.13
2023-02-08T12:20:42.462Z,5.25
2023-02-08T12:23:35.426Z,5.31
2023-02-08T12:26:11.362Z,5.34
2023-02-08T12:29:10.821Z,5.28
2023-02-08T12:31:49.418Z,5.41
2023-02-08T12:34:29.148Z,5.42
2023-02-08T12:37:28.263Z,5.39
2023-02-08T12:40:42.666Z,5.56
2023-02-08T12:43:23.963Z,5.76
2023-02-08T12:46:41.556Z,5.92
2023-02-08T12:49:40.259Z,5.91
2023-02-08T12:52:32.740Z,5.93
2023-02-08T12:55:05.604Z,6.04
2023-02-08T12:57:33.174Z,6.15
2023-02-08T13:00:23.561Z,6.28
2023-02-08T13:02:57.563Z,6.36
2023-02-08T13:05:30.993Z,6.38
2023-02-08T13:08:26.300Z,6.44
2023-02-08T13:11:14.093Z,6.47
2023-02-08T13:14:01.260Z,6.49
2023-02-08T13:16:34.783Z,6.56
2023-02-08T13:19:23.424Z,6.57
2023-02-08T13:21:53.088Z,6.71
2023-02-08T13:24:28.872Z,6.78
2023-02-08T13:26:55.267Z,6.83
2023-02-08T13:29:23.307Z,6.87
2023-02-08T13:32:04.890Z,6.92
2023-02-08T13:34:38.540Z,6.95
2023-02-08T13:37:24.838Z,6.94
2023-02-08T13:40:18.183Z,7.03
2023-02-08T13:42:52.424Z,7.06
2023-02-08T13:45:27.040Z,7.05
2023-02-08T13:47:59.703Z,6.96
2023-02-08T13:50:46.806Z,6.94
2023-02-08T13:53:15.498Z,6.84
2023-02-08T13:55:53.288Z,6.79
2023-02-08T13:58:42.728Z,6.77
2023-02-08T14:01:22.796Z,6.73
2023-02-08T14:04:30.944Z,6.64
2023-02-08T14:07:24.051Z,6.62
2023-02-08T14:10:21.604Z,6.50
2023-02-08T14:13:09.055Z,6.38
2023-02-08T14:15:38.840Z,6.39
2023-02-08T14:18:25.504Z,6.36
2023-02-08T14:21:05.129Z,6.33
2023-02-08T14:23:34.425Z,6.33
2023-02-08T14:26:09.213Z,6.34
2023-02-08T14:28:40.187Z,6.32
2023-02-08T14:31:10.088Z,6.30
2023-02-08T14:33:42.698Z,6.31
2023-02-08T14:36:25.824Z,6.29
2023-02-08T14:39:21.470Z,6.32
2023-02-08T14:42:05.317Z,6.30
2023-02-08T14:44:37.552Z,6.28
2023-02-08T14:47:36.870Z,6.26
2023-02-08T14:50:28.979Z,6.22
2023-02-08T14:53:34.422Z,6.17
2023-02-08T14:56:09.755Z,6.21
2023-02-08T14:58:46.444Z,6.25
2023-02-08T15:01:18.999Z,6.23
2023-02-08T15:03:49.197Z,6.21
2023-02-08T15:06:37.568Z,6.18
2023-02-08T15:09:06.467Z,6.19
2023-02-08T15:11:35.243Z,6.12
2023-02-08T15:14:04.517Z,6.11
2023-02-08T15:16:40.211Z,6.12
2023-02-08T15:19:09.270Z,6.10
2023-02-08T15:21:40.905Z,6.06
2023-02-08T15:24:16.997Z,6.00
2023-02-08T15:26:48.381Z,5.94
2023-02-08T15:29:32.739Z,5.98
2023-02-08T15:32:00.042Z,6.01
2023-02-08T15:34:26.885Z,6.05
2023-02-08T15:36:56.021Z,6.08
2023-02-08T15:39:39.356Z,6.06
2023-02-08T15:42:14.611Z,6.05
2023-02-08T15:44:44.284Z,6.02
2023-02-08T15:47:24.921Z,5.98
2023-02-08T15:49:53.603Z,5.97
2023-02-08T15:52:27.857Z,5.99
2023-02-08T15:54:54.579Z,5.99
2023-02-08T15:57:44.075Z,6.00
2023-02-08T16:00:43.057Z,5.95
2023-02-08T16:03:19.631Z,5.94
2023-02-08T16:05:50.948Z,5.94
2023-02-08T16:08:23.357Z,5.91
2023-02-08T16:10:54.806Z,5.92
2023-02-08T16:13:28.683Z,5.92
2023-02-08T16:16:13.603Z,5.91
2023-02-08T16:18:45.924Z,5.85
2023-02-08T16:21:27.900Z,5.82
2023-02-08T16:24:18.668Z,5.75
2023-02-08T16:27:03.651Z,5.79
2023-02-08T16:29:39.364Z,5.80
2023-02-08T16:32:13.313Z,5.77
2023-02-08T16:34:40.632Z,5.73
2023-02-08T16:37:25.582Z,5.68
2023-02-08T16:39:57.583Z,5.68
2023-02-08T16:42:29.144Z,5.65
2023-02-08T16:45:07.508Z,5.65
2023-02-08T16:47:43.104Z,5.65
2023-02-08T16:50:12.802Z,5.63
2023-02-08T16:52:39.916Z,5.61
2023-02-08T16:55:08.358Z,5.59
2023-02-08T16:57:40.796Z,5.58
2023-02-08T17:00:18.436Z,5.56
2023-02-08T17:02:44.905Z,5.53
2023-02-08T17:05:11.634Z,5.50
2023-02-08T17:07:38.096Z,5.45
2023-02-08T17:10:07.049Z,5.42
2023-02-08T17:12:33.506Z,5.41
2023-02-08T17:14:59.968Z,5.40
2023-02-08T17:17:27.422Z,5.35
2023-02-08T17:19:53.821Z,5.35
2023-02-08T17:22:20.249Z,5.30
2023-02-08T17:24:46.620Z,5.27
2023-02-08T17:27:14.284Z,5.25
2023-02-08T17:29:41.446Z,5.26
2023-02-08T17:32:08.052Z,5.25
2023-02-08T17:34:36.574Z,5.26
2023-02-08T17:37:03.030Z,5.22
2023-02-08T17:39:29.397Z,5.22
2023-02-08T17:41:55.821Z,5.19
2023-02-08T17:44:22.195Z,5.14
2023-02-08T17:46:48.550Z,5.13
2023-02-08T17:49:16.259Z,5.09
2023-02-08T17:51:42.662Z,5.06
2023-02-08T17:54:11.049Z,5.06
2023-02-08T17:56:37.738Z,5.04
2023-02-08T17:59:05.295Z,5.04
2023-02-08T18:01:32.446Z,5.04
2023-02-08T18:03:59.624Z,5.04
2023-02-08T18:06:26.274Z,5.00
2023-02-08T18:08:54.472Z,4.97
2023-02-08T18:11:21.246Z,4.95
2023-02-08T18:13:49.384Z,4.93
2023-02-08T18:16:20.950Z,4.93
2023-02-08T18:18:47.568Z,4.96
2023-02-08T18:21:22.269Z,4.97
2023-02-08T18:23:49.844Z,4.94
2023-02-08T18:26:20.654Z,4.92
2023-02-08T18:28:47.607Z,4.90
2023-02-08T18:31:16.840Z,4.87
2023-02-08T18:33:43.835Z,4.85
2023-02-08T18:36:11.469Z,4.80
2023-02-08T18:38:39.843Z,4.77
2023-02-08T18:41:10.784Z,4.76
2023-02-08T18:43:39.088Z,4.74
2023-02-08T18:46:11.313Z,4.71
2023-02-08T18:48:39.068Z,4.66
2023-02-08T18:51:07.549Z,4.64
2023-02-08T18:53:36.883Z,4.61
2023-02-08T18:56:06.330Z,4.58
2023-02-08T18:58:33.427Z,4.58
2023-02-08T19:01:19.498Z,4.58
2023-02-08T19:03:46.444Z,4.57
2023-02-08T19:06:19.799Z,4.56
2023-02-08T19:08:46.764Z,4.51
2023-02-08T19:11:22.839Z,4.47
2023-02-08T19:13:50.495Z,4.45
2023-02-08T19:16:18.109Z,4.41
2023-02-08T19:18:45.666Z,4.41
2023-02-08T19:21:15.086Z,4.40
2023-02-08T19:23:41.577Z,4.39
2023-02-08T19:26:22.798Z,4.36
2023-02-08T19:28:50.002Z,4.34
2023-02-08T19:31:20.138Z,4.31
2023-02-08T19:33:49.173Z,4.28
2023-02-08T19:36:21.208Z,4.27
2023-02-08T19:38:50.710Z,4.26
2023-02-08T19:41:20.342Z,4.24
2023-02-08T19:43:47.520Z,4.21
2023-02-08T19:46:19.237Z,4.18
2023-02-08T19:48:46.368Z,4.16
2023-02-08T19:51:12.776Z,4.16
2023-02-08T19:53:39.178Z,4.13
2023-02-08T19:56:08.473Z,4.10
2023-02-08T19:58:36.028Z,4.08
2023-02-08T20:01:07.256Z,4.02
2023-02-08T20:03:33.808Z,4.00
2023-02-08T20:06:00.339Z,3.96
2023-02-08T20:08:27.420Z,3.95
2023-02-08T20:10:55.013Z,3.95
2023-02-08T20:13:22.121Z,3.94
2023-02-08T20:15:48.783Z,3.95
2023-02-08T20:18:16.537Z,3.95
2023-02-08T20:20:43.320Z,3.94
2023-02-08T20:23:22.361Z,3.93
2023-02-08T20:25:49.525Z,3.93
2023-02-08T20:28:15.971Z,3.91
2023-02-08T20:30:42.679Z,3.84
2023-02-08T20:33:09.150Z,3.85
2023-02-08T20:35:36.407Z,3.88
2023-02-08T20:38:02.912Z,3.90
2023-02-08T20:40:29.320Z,3.91
2023-02-08T20:42:55.689Z,3.91
2023-02-08T20:45:22.238Z,3.91
2023-02-08T20:47:48.657Z,3.88
2023-02-08T20:50:19.251Z,3.90
2023-02-08T20:52:46.747Z,3.90
2023-02-08T20:55:13.113Z,3.85
2023-02-08T20:57:39.579Z,3.83
2023-02-08T21:00:06.421Z,3.81
2023-02-08T21:02:32.993Z,3.80
2023-02-08T21:04:59.504Z,3.78
2023-02-08T21:07:25.927Z,3.76
2023-02-08T21:09:52.346Z,3.73
2023-02-08T21:12:18.738Z,3.71
2023-02-08T21:14:45.140Z,3.69
2023-02-08T21:17:11.760Z,3.72
2023-02-08T21:19:39.523Z,3.71
2023-02-08T21:22:06.236Z,3.69
2023-02-08T21:24:33.020Z,3.69
2023-02-08T21:26:59.866Z,3.67
2023-02-08T21:29:29.110Z,3.63
2023-02-08T21:31:57.379Z,3.61
2023-02-08T21:34:24.510Z,3.63
2023-02-08T21:36:51.061Z,3.61
2023-02-08T21:39:17.647Z,3.58
2023-02-08T21:41:44.137Z,3.57
2023-02-08T21:44:10.638Z,3.58
2023-02-08T21:46:37.132Z,3.57
2023-02-08T21:49:22.102Z,3.56
2023-02-08T21:52:07.230Z,3.52
2023-02-08T21:54:52.874Z,3.49
2023-02-08T21:57:28.058Z,3.45
2023-02-08T21:59:59.408Z,3.45
2023-02-08T22:02:28.679Z,3.43
2023-02-08T22:04:57.840Z,3.43
2023-02-08T22:07:25.608Z,3.40
2023-02-08T22:09:52.543Z,3.40
2023-02-08T22:12:21.327Z,3.41
2023-02-08T22:14:48.926Z,3.38
2023-02-08T22:17:15.836Z,3.36
2023-02-08T22:19:42.867Z,3.35
2023-02-08T22:22:10.436Z,3.36
2023-02-08T22:24:36.999Z,3.29
2023-02-08T22:27:03.620Z,3.27
2023-02-08T22:29:30.064Z,3.29
2023-02-08T22:31:56.523Z,3.27
2023-02-08T22:34:23.082Z,3.21
2023-02-08T22:36:49.462Z,3.20
2023-02-08T22:39:15.945Z,3.21
2023-02-08T22:41:42.366Z,3.23
2023-02-08T22:44:08.764Z,3.26
2023-02-08T22:46:35.289Z,3.21
2023-02-08T22:49:01.752Z,3.19
2023-02-08T22:51:28.325Z,3.18
2023-02-08T22:53:55.949Z,3.16
2023-02-08T22:56:22.460Z,3.15
2023-02-08T22:58:48.926Z,3.20
2023-02-08T23:01:17.285Z,3.19
2023-02-08T23:03:44.323Z,3.16
2023-02-08T23:06:14.837Z,3.32
2023-02-08T23:08:42.160Z,3.29
2023-02-08T23:11:10.382Z,3.21
2023-02-08T23:13:36.836Z,3.13
2023-02-08T23:16:03.501Z,3.08
2023-02-08T23:18:29.897Z,3.08
2023-02-08T23:20:56.446Z,3.05
2023-02-08T23:23:23.019Z,3.04
2023-02-08T23:25:49.430Z,3.02
2023-02-08T23:28:15.935Z,3.01
2023-02-08T23:30:43.631Z,3.01
2023-02-08T23:33:10.252Z,3.03
2023-02-08T23:35:40.577Z,3.04
2023-02-08T23:38:07.853Z,3.02
2023-02-08T23:40:34.256Z,3.01
2023-02-08T23:43:00.695Z,2.98
2023-02-08T23:45:27.141Z,2.99
2023-02-08T23:47:53.563Z,3.01
2023-02-08T23:50:20.078Z,3.01
2023-02-08T23:52:46.459Z,2.98
2023-02-08T23:55:12.873Z,2.93
2023-02-08T23:57:39.678Z,2.91
